createdAt,value
2022-12-16T00:01:29.024Z,0.56
2022-12-16T00:03:57.782Z,0.65
2022-12-16T00:06:26.794Z,0.62
2022-12-16T00:08:53.660Z,0.54
2022-12-16T00:11:21.678Z,0.62
2022-12-16T00:13:48.888Z,0.50
2022-12-16T00:16:17.653Z,0.72
2022-12-16T00:18:45.037Z,0.58
2022-12-16T00:21:12.464Z,0.58
2022-12-16T00:23:41.845Z,0.62
2022-12-16T00:26:09.186Z,0.61
2022-12-16T00:28:36.171Z,0.61
2022-12-16T00:31:03.294Z,0.75
2022-12-16T00:33:30.714Z,0.64
2022-12-16T00:35:57.871Z,0.61
2022-12-16T00:38:26.321Z,0.63
2022-12-16T00:40:53.102Z,0.67
2022-12-16T00:43:20.310Z,0.63
2022-12-16T00:45:48.022Z,0.81
2022-12-16T00:48:15.444Z,0.65
2022-12-16T00:50:48.968Z,0.57
2022-12-16T00:53:15.719Z,0.66
2022-12-16T00:55:43.315Z,0.63
2022-12-16T00:58:10.577Z,0.55
2022-12-16T01:00:37.335Z,0.66
2022-12-16T01:03:04.971Z,0.73
2022-12-16T01:05:31.691Z,0.62
2022-12-16T01:07:58.360Z,0.69
2022-12-16T01:10:25.835Z,0.63
2022-12-16T01:12:52.626Z,0.61
2022-12-16T01:15:19.793Z,0.74
2022-12-16T01:17:46.871Z,0.66
2022-12-16T01:20:14.281Z,0.68
2022-12-16T01:22:41.277Z,0.66
2022-12-16T01:25:10.167Z,0.90
2022-12-16T01:27:36.815Z,0.76
2022-12-16T01:30:03.965Z,0.98
2022-12-16T01:32:30.609Z,0.87
2022-12-16T01:34:57.381Z,0.87
2022-12-16T01:37:24.299Z,1.03
2022-12-16T01:39:51.087Z,0.76
2022-12-16T01:42:21.850Z,0.87
2022-12-16T01:44:52.286Z,0.80
2022-12-16T01:47:33.257Z,0.94
2022-12-16T01:50:07.364Z,0.82
2022-12-16T01:52:40.258Z,0.92
2022-12-16T01:55:16.386Z,0.97
2022-12-16T01:57:48.056Z,0.85
2022-12-16T02:00:15.010Z,0.86
2022-12-16T02:02:45.491Z,0.87
2022-12-16T02:05:21.101Z,0.87
2022-12-16T02:07:56.197Z,0.79
2022-12-16T02:10:34.025Z,0.94
2022-12-16T02:13:25.449Z,0.94
2022-12-16T02:16:18.180Z,0.94
2022-12-16T02:19:23.354Z,0.90
2022-12-16T02:22:05.515Z,0.92
2022-12-16T02:24:44.206Z,0.85
2022-12-16T02:27:47.972Z,0.95
2022-12-16T02:30:34.380Z,1.00
2022-12-16T02:33:13.242Z,1.04
2022-12-16T02:35:41.770Z,0.96
2022-12-16T02:38:26.618Z,0.97
2022-12-16T02:41:02.842Z,0.93
2022-12-16T02:44:04.405Z,0.95
2022-12-16T02:46:35.368Z,0.96
2022-12-16T02:49:29.132Z,0.88
2022-12-16T02:51:59.377Z,0.86
2022-12-16T02:54:27.382Z,0.83
2022-12-16T02:56:57.003Z,0.96
2022-12-16T02:59:54.340Z,1.00
2022-12-16T03:02:54.948Z,0.93
2022-12-16T03:05:48.173Z,0.89
2022-12-16T03:08:25.025Z,0.84
2022-12-16T03:10:56.853Z,0.91
2022-12-16T03:13:23.819Z,0.93
2022-12-16T03:15:53.927Z,0.93
2022-12-16T03:18:22.022Z,0.93
2022-12-16T03:21:00.464Z,1.06
2022-12-16T03:23:40.923Z,0.94
2022-12-16T03:26:15.884Z,0.90
2022-12-16T03:28:51.687Z,0.93
2022-12-16T03:31:51.306Z,0.87
2022-12-16T03:34:33.179Z,0.95
2022-12-16T03:37:04.220Z,1.12
2022-12-16T03:39:39.931Z,1.23
2022-12-16T03:42:07.736Z,1.14
2022-12-16T03:44:35.592Z,1.05
2022-12-16T03:47:04.999Z,0.97
2022-12-16T03:49:31.706Z,0.91
2022-12-16T03:51:58.357Z,1.21
2022-12-16T03:54:25.769Z,1.05
2022-12-16T03:56:52.467Z,1.05
2022-12-16T03:59:19.223Z,1.29
2022-12-16T04:01:46.096Z,1.05
2022-12-16T04:04:12.956Z,0.93
2022-12-16T04:06:39.592Z,1.07
2022-12-16T04:09:06.296Z,1.23
2022-12-16T04:11:51.567Z,1.23
2022-12-16T04:14:36.966Z,1.31
2022-12-16T04:17:22.566Z,1.26
2022-12-16T04:20:08.797Z,1.25
2022-12-16T04:22:59.017Z,1.14
2022-12-16T04:25:32.566Z,1.38
2022-12-16T04:27:59.215Z,1.42
2022-12-16T04:30:27.928Z,1.32
2022-12-16T04:33:19.574Z,1.32
2022-12-16T04:36:04.878Z,1.30
2022-12-16T04:38:50.651Z,1.24
2022-12-16T04:41:35.777Z,1.26
2022-12-16T04:44:22.048Z,1.27
2022-12-16T04:47:07.286Z,1.41
2022-12-16T04:49:52.592Z,1.25
2022-12-16T04:52:38.399Z,1.31
2022-12-16T04:55:25.186Z,1.14
2022-12-16T04:58:12.701Z,1.26
2022-12-16T05:00:58.524Z,1.27
2022-12-16T05:03:44.874Z,1.16
2022-12-16T05:06:30.698Z,1.33
2022-12-16T05:09:15.788Z,1.21
2022-12-16T05:12:01.592Z,1.22
2022-12-16T05:14:46.818Z,1.21
2022-12-16T05:17:33.886Z,1.24
2022-12-16T05:20:19.686Z,1.15
2022-12-16T05:23:04.840Z,1.28
2022-12-16T05:25:50.676Z,1.22
2022-12-16T05:28:37.621Z,1.21
2022-12-16T05:31:23.382Z,1.36
2022-12-16T05:34:08.647Z,1.29
2022-12-16T05:36:53.879Z,1.22
2022-12-16T05:39:39.240Z,1.16
2022-12-16T05:42:24.751Z,1.15
2022-12-16T05:45:10.073Z,1.32
2022-12-16T05:47:55.300Z,1.33
2022-12-16T05:50:40.464Z,1.30
2022-12-16T05:53:25.801Z,1.37
2022-12-16T05:56:11.120Z,1.39
2022-12-16T05:58:56.180Z,1.24
2022-12-16T06:01:41.611Z,1.32
2022-12-16T06:04:26.789Z,1.46
2022-12-16T06:07:11.999Z,1.32
2022-12-16T06:09:57.188Z,1.38
2022-12-16T06:12:43.001Z,1.33
2022-12-16T06:15:28.775Z,1.37
2022-12-16T06:18:14.408Z,1.25
2022-12-16T06:21:00.166Z,1.32
2022-12-16T06:23:45.374Z,1.44
2022-12-16T06:26:30.650Z,1.46
2022-12-16T06:29:15.889Z,1.44
2022-12-16T06:32:01.115Z,1.29
2022-12-16T06:34:57.101Z,1.37
2022-12-16T06:37:42.125Z,1.33
2022-12-16T06:40:28.527Z,1.29
2022-12-16T06:43:13.736Z,1.46
2022-12-16T06:45:59.134Z,1.51
2022-12-16T06:48:44.337Z,1.39
2022-12-16T06:51:29.574Z,1.33
2022-12-16T06:54:14.781Z,1.23
2022-12-16T06:57:00.072Z,1.34
2022-12-16T06:59:45.500Z,1.22
2022-12-16T07:02:32.766Z,1.25
2022-12-16T07:05:18.141Z,1.32
2022-12-16T07:08:08.488Z,1.32
2022-12-16T07:10:55.283Z,1.25
2022-12-16T07:13:42.135Z,1.35
2022-12-16T07:16:27.388Z,1.28
2022-12-16T07:19:12.530Z,1.26
2022-12-16T07:21:57.704Z,1.28
2022-12-16T07:24:43.049Z,1.21
2022-12-16T07:27:28.192Z,1.24
2022-12-16T07:30:13.429Z,1.57
2022-12-16T07:32:58.617Z,1.60
2022-12-16T07:35:43.938Z,1.61
2022-12-16T07:38:29.118Z,1.56
2022-12-16T07:41:14.507Z,1.52
2022-12-16T07:43:59.978Z,1.52
2022-12-16T07:46:45.348Z,1.50
2022-12-16T07:49:30.852Z,1.59
2022-12-16T07:52:16.090Z,1.46
2022-12-16T07:55:08.826Z,1.50
2022-12-16T07:57:54.193Z,1.53
2022-12-16T08:00:39.347Z,1.59
2022-12-16T08:03:24.612Z,1.57
2022-12-16T08:06:09.875Z,1.50
2022-12-16T08:08:54.889Z,1.46
2022-12-16T08:11:40.097Z,1.44
2022-12-16T08:14:25.315Z,1.53
2022-12-16T08:17:10.617Z,1.36
2022-12-16T08:19:55.994Z,1.53
2022-12-16T08:22:41.032Z,1.47
2022-12-16T08:25:26.282Z,1.48
2022-12-16T08:28:14.990Z,1.57
2022-12-16T08:31:00.356Z,1.57
2022-12-16T08:33:45.747Z,1.55
2022-12-16T08:36:30.923Z,1.79
2022-12-16T08:39:16.207Z,1.69
2022-12-16T08:42:01.390Z,1.80
2022-12-16T08:44:46.712Z,1.65
2022-12-16T08:47:32.299Z,1.67
2022-12-16T08:50:17.457Z,1.68
2022-12-16T08:53:03.235Z,1.70
2022-12-16T08:55:48.518Z,1.63
2022-12-16T08:58:34.323Z,1.66
2022-12-16T09:01:19.623Z,1.74
2022-12-16T09:04:04.963Z,1.51
2022-12-16T09:06:50.418Z,1.63
2022-12-16T09:09:35.564Z,1.75
2022-12-16T09:12:21.184Z,1.59
2022-12-16T09:15:06.426Z,1.68
2022-12-16T09:17:51.957Z,1.61
2022-12-16T09:20:38.240Z,1.62
2022-12-16T09:23:23.853Z,1.78
2022-12-16T09:26:09.141Z,1.82
2022-12-16T09:28:54.429Z,1.71
2022-12-16T09:31:39.949Z,1.83
2022-12-16T09:34:25.327Z,1.74
2022-12-16T09:37:10.492Z,1.82
2022-12-16T09:39:55.646Z,1.84
2022-12-16T09:43:12.247Z,1.80
2022-12-16T09:46:12.671Z,1.85
2022-12-16T09:49:14.892Z,1.70
2022-12-16T09:52:01.627Z,1.82
2022-12-16T09:54:50.318Z,1.82
2022-12-16T09:57:38.295Z,1.86
2022-12-16T10:00:37.681Z,1.76
2022-12-16T10:03:32.267Z,1.98
2022-12-16T10:06:24.923Z,1.80
2022-12-16T10:09:37.480Z,1.84
2022-12-16T10:12:34.901Z,1.77
2022-12-16T10:15:45.291Z,1.84
2022-12-16T10:19:01.069Z,1.83
2022-12-16T10:21:53.413Z,1.92
2022-12-16T10:24:44.647Z,1.87
2022-12-16T10:27:35.552Z,1.79
2022-12-16T10:30:22.041Z,1.80
2022-12-16T10:33:10.342Z,1.86
2022-12-16T10:36:03.123Z,1.84
2022-12-16T10:39:02.227Z,1.89
2022-12-16T10:41:52.980Z,1.91
2022-12-16T10:45:07.398Z,1.88
2022-12-16T10:47:52.658Z,1.87
2022-12-16T10:50:38.730Z,1.81
2022-12-16T10:53:33.724Z,1.94
2022-12-16T10:56:40.870Z,2.03
2022-12-16T10:59:28.052Z,2.07
2022-12-16T11:02:22.569Z,1.98
2022-12-16T11:05:08.282Z,2.17
2022-12-16T11:08:02.745Z,2.26
2022-12-16T11:10:53.467Z,2.38
2022-12-16T11:13:55.004Z,2.52
2022-12-16T11:16:47.571Z,2.71
2022-12-16T11:19:41.401Z,2.88
2022-12-16T11:22:35.314Z,3.02
2022-12-16T11:25:25.015Z,3.02
2022-12-16T11:28:20.364Z,2.94
2022-12-16T11:31:14.278Z,3.07
2022-12-16T11:34:01.055Z,3.03
2022-12-16T11:36:46.658Z,2.95
2022-12-16T11:39:38.540Z,3.11
2022-12-16T11:42:25.202Z,2.90
2022-12-16T11:45:20.487Z,2.73
2022-12-16T11:48:19.959Z,2.80
2022-12-16T11:51:15.456Z,2.59
2022-12-16T11:54:26.109Z,2.24
2022-12-16T11:57:11.275Z,2.22
2022-12-16T12:00:00.504Z,2.05
2022-12-16T12:03:09.135Z,2.06
2022-12-16T12:06:07.852Z,2.01
2022-12-16T12:08:57.546Z,2.25
2022-12-16T12:12:01.654Z,2.30
2022-12-16T12:15:02.089Z,2.44
2022-12-16T12:18:12.281Z,2.48
2022-12-16T12:21:12.890Z,2.43
2022-12-16T12:24:20.465Z,2.40
2022-12-16T12:27:18.790Z,2.47
2022-12-16T12:30:16.845Z,2.13
2022-12-16T12:33:16.446Z,2.00
2022-12-16T12:36:23.808Z,2.04
2022-12-16T12:39:28.030Z,2.33
2022-12-16T12:42:22.583Z,2.45
2022-12-16T12:45:13.297Z,2.52
2022-12-16T12:48:19.626Z,2.51
2022-12-16T12:51:32.596Z,2.48
2022-12-16T12:54:39.638Z,2.45
2022-12-16T12:57:27.699Z,2.43
2022-12-16T13:00:22.172Z,2.54
2022-12-16T13:03:22.754Z,2.49
2022-12-16T13:06:09.179Z,2.36
2022-12-16T13:09:02.573Z,2.39
2022-12-16T13:11:47.755Z,2.32
2022-12-16T13:14:51.529Z,2.19
2022-12-16T13:17:39.131Z,2.21
2022-12-16T13:20:50.679Z,2.22
2022-12-16T13:23:45.935Z,2.13
2022-12-16T13:26:37.137Z,2.16
2022-12-16T13:29:43.929Z,2.03
2022-12-16T13:32:29.103Z,2.01
2022-12-16T13:35:28.845Z,1.98
2022-12-16T13:38:37.296Z,1.92
2022-12-16T13:41:25.524Z,1.89
2022-12-16T13:44:16.038Z,1.79
2022-12-16T13:47:09.913Z,1.76
2022-12-16T13:49:55.299Z,1.76
2022-12-16T13:53:16.531Z,1.56
2022-12-16T13:56:13.753Z,1.54
2022-12-16T13:59:07.126Z,1.51
2022-12-16T14:02:01.627Z,1.46
2022-12-16T14:04:51.306Z,1.44
2022-12-16T14:07:39.313Z,1.39
2022-12-16T14:10:38.854Z,1.38
2022-12-16T14:13:33.857Z,1.29
2022-12-16T14:16:38.738Z,1.34
2022-12-16T14:19:47.631Z,1.43
2022-12-16T14:22:59.072Z,1.46
2022-12-16T14:25:44.436Z,1.46
2022-12-16T14:28:51.148Z,1.53
2022-12-16T14:31:52.803Z,1.59
2022-12-16T14:34:47.207Z,1.61
2022-12-16T14:37:41.614Z,1.73
2022-12-16T14:40:41.990Z,1.78
2022-12-16T14:43:44.445Z,1.81
2022-12-16T14:46:55.951Z,1.62
2022-12-16T14:49:46.873Z,1.66
2022-12-16T14:52:46.247Z,1.58
2022-12-16T14:55:37.521Z,1.53
2022-12-16T14:58:34.194Z,1.39
2022-12-16T15:01:23.875Z,1.39
2022-12-16T15:04:09.331Z,1.31
2022-12-16T15:07:01.736Z,1.26
2022-12-16T15:09:52.638Z,0.96
2022-12-16T15:12:44.058Z,0.77
2022-12-16T15:15:40.909Z,0.70
2022-12-16T15:18:36.678Z,0.62
2022-12-16T15:21:22.406Z,0.53
2022-12-16T15:24:07.639Z,0.46
2022-12-16T15:26:53.938Z,0.35
2022-12-16T15:29:59.968Z,0.12
2022-12-16T15:32:52.938Z,0.00
2022-12-16T15:35:44.299Z,-0.01
2022-12-16T15:38:42.063Z,-0.02
2022-12-16T15:41:41.292Z,-0.03
2022-12-16T15:44:38.322Z,-0.17
2022-12-16T15:47:25.749Z,-0.20
2022-12-16T15:50:11.001Z,-0.17
2022-12-16T15:53:03.302Z,-0.37
2022-12-16T15:55:49.970Z,-0.37
2022-12-16T15:58:44.977Z,-0.42
2022-12-16T16:01:32.748Z,-0.52
2022-12-16T16:04:18.427Z,-0.63
2022-12-16T16:07:11.559Z,-0.75
2022-12-16T16:09:58.335Z,-0.87
2022-12-16T16:12:44.499Z,-1.13
2022-12-16T16:15:31.899Z,-1.38
2022-12-16T16:18:20.314Z,-1.40
2022-12-16T16:21:05.819Z,-1.39
2022-12-16T16:23:51.096Z,-1.44
2022-12-16T16:26:41.083Z,-1.49
2022-12-16T16:29:28.636Z,-1.59
2022-12-16T16:32:13.687Z,-1.63
2022-12-16T16:34:58.991Z,-1.73
2022-12-16T16:37:44.146Z,-1.82
2022-12-16T16:40:55.992Z,-2.13
2022-12-16T16:43:42.568Z,-2.22
2022-12-16T16:46:40.179Z,-2.05
2022-12-16T16:49:30.324Z,-1.96
2022-12-16T16:52:15.715Z,-1.82
2022-12-16T16:55:00.942Z,-1.81
2022-12-16T16:57:48.704Z,-1.90
2022-12-16T17:00:34.432Z,-2.03
2022-12-16T17:03:19.755Z,-2.53
2022-12-16T17:06:05.278Z,-2.62
2022-12-16T17:08:50.588Z,-2.47
2022-12-16T17:11:38.825Z,-2.51
2022-12-16T17:14:24.112Z,-2.72
2022-12-16T17:17:09.649Z,-2.71
2022-12-16T17:19:54.894Z,-2.64
2022-12-16T17:22:40.182Z,-2.63
2022-12-16T17:25:25.918Z,-2.87
2022-12-16T17:28:11.407Z,-2.76
2022-12-16T17:30:56.674Z,-2.64
2022-12-16T17:33:41.725Z,-2.45
2022-12-16T17:36:34.629Z,-2.28
2022-12-16T17:39:20.514Z,-2.23
2022-12-16T17:42:05.736Z,-2.46
2022-12-16T17:44:51.066Z,-2.47
2022-12-16T17:47:36.761Z,-2.34
2022-12-16T17:50:23.804Z,-2.11
2022-12-16T17:53:13.625Z,-1.99
2022-12-16T17:55:59.399Z,-1.89
2022-12-16T17:58:52.743Z,-1.85
2022-12-16T18:01:39.024Z,-1.86
2022-12-16T18:04:24.831Z,-2.11
2022-12-16T18:07:10.151Z,-2.64
2022-12-16T18:09:55.388Z,-2.88
2022-12-16T18:12:41.173Z,-2.90
2022-12-16T18:15:27.482Z,-3.02
2022-12-16T18:18:12.725Z,-3.04
2022-12-16T18:20:57.881Z,-3.12
2022-12-16T18:23:42.982Z,-2.95
2022-12-16T18:26:28.870Z,-2.81
2022-12-16T18:29:14.529Z,-2.71
2022-12-16T18:32:02.904Z,-2.72
2022-12-16T18:34:48.426Z,-2.80
2022-12-16T18:37:33.636Z,-2.91
2022-12-16T18:40:18.843Z,-2.94
2022-12-16T18:43:04.036Z,-3.03
2022-12-16T18:45:49.577Z,-3.05
2022-12-16T18:48:34.996Z,-3.06
2022-12-16T18:51:20.616Z,-3.13
2022-12-16T18:54:08.484Z,-3.20
2022-12-16T18:56:53.719Z,-3.28
2022-12-16T18:59:38.839Z,-3.16
2022-12-16T19:02:24.165Z,-3.23
2022-12-16T19:05:09.450Z,-3.84
2022-12-16T19:07:54.622Z,-4.21
2022-12-16T19:10:40.449Z,-4.42
2022-12-16T19:13:25.808Z,-4.24
2022-12-16T19:16:15.462Z,-4.14
2022-12-16T19:19:01.286Z,-4.50
2022-12-16T19:24:54.962Z,-4.79
2022-12-16T19:27:42.149Z,-4.91
2022-12-16T19:30:28.553Z,-4.71
2022-12-16T19:33:13.993Z,-4.58
2022-12-16T19:35:59.483Z,-4.48
2022-12-16T19:38:44.623Z,-4.39
2022-12-16T19:41:33.868Z,-4.45
2022-12-16T19:44:23.377Z,-4.53
2022-12-16T19:50:14.089Z,-4.74
2022-12-16T19:52:59.331Z,-4.88
2022-12-16T19:55:44.350Z,-4.93
2022-12-16T19:58:29.538Z,-4.95
2022-12-16T20:01:14.891Z,-5.31
2022-12-16T20:04:00.122Z,-5.30
2022-12-16T20:06:45.439Z,-5.58
2022-12-16T20:09:30.668Z,-5.66
2022-12-16T20:12:15.869Z,-5.37
2022-12-16T20:15:01.250Z,-5.29
2022-12-16T20:17:46.578Z,-5.30
2022-12-16T20:20:31.859Z,-5.45
2022-12-16T20:23:17.110Z,-5.33
2022-12-16T20:26:02.242Z,-5.40
2022-12-16T20:28:57.755Z,-5.67
2022-12-16T20:31:42.940Z,-5.75
2022-12-16T20:34:28.158Z,-5.67
2022-12-16T20:37:13.366Z,-5.97
2022-12-16T20:39:58.552Z,-6.13
2022-12-16T20:42:44.887Z,-5.87
2022-12-16T20:45:34.985Z,-5.77
2022-12-16T20:48:20.686Z,-5.74
2022-12-16T20:51:14.178Z,-5.74
2022-12-16T20:53:59.992Z,-5.93
2022-12-16T20:56:45.249Z,-5.97
2022-12-16T20:59:30.542Z,-5.95
2022-12-16T21:02:25.883Z,-5.93
2022-12-16T21:05:13.519Z,-5.93
2022-12-16T21:07:58.733Z,-5.92
2022-12-16T21:10:44.167Z,-5.97
2022-12-16T21:13:32.624Z,-5.92
2022-12-16T21:16:19.342Z,-5.83
2022-12-16T21:19:04.506Z,-5.76
2022-12-16T21:21:49.760Z,-5.62
2022-12-16T21:24:35.023Z,-5.55
2022-12-16T21:27:20.264Z,-5.59
2022-12-16T21:30:05.592Z,-5.38
2022-12-16T21:32:50.949Z,-5.21
2022-12-16T21:35:39.088Z,-5.09
2022-12-16T21:38:31.419Z,-5.06
2022-12-16T21:41:17.014Z,-4.96
2022-12-16T21:44:02.107Z,-4.81
2022-12-16T21:46:47.528Z,-4.76
2022-12-16T21:49:34.794Z,-4.70
2022-12-16T21:52:20.041Z,-4.73
2022-12-16T21:55:05.467Z,-4.55
2022-12-16T21:57:51.174Z,-4.38
2022-12-16T22:00:38.698Z,-4.20
2022-12-16T22:03:24.015Z,-4.09
2022-12-16T22:06:09.328Z,-4.17
2022-12-16T22:08:56.239Z,-4.22
2022-12-16T22:11:41.852Z,-4.21
2022-12-16T22:14:27.074Z,-4.33
2022-12-16T22:17:12.520Z,-4.41
2022-12-16T22:19:57.931Z,-4.33
2022-12-16T22:22:43.328Z,-4.41
2022-12-16T22:25:28.949Z,-4.39
2022-12-16T22:28:14.115Z,-4.59
2022-12-16T22:30:59.513Z,-4.61
2022-12-16T22:33:44.557Z,-4.61
2022-12-16T22:36:31.898Z,-4.76
2022-12-16T22:39:17.313Z,-4.99
2022-12-16T22:42:02.689Z,-5.00
2022-12-16T22:44:48.026Z,-5.15
2022-12-16T22:47:33.337Z,-4.99
2022-12-16T22:50:18.562Z,-5.41
2022-12-16T22:53:03.927Z,-5.21
2022-12-16T22:55:49.286Z,-5.65
2022-12-16T22:58:34.604Z,-5.42
2022-12-16T23:01:19.805Z,-5.68
2022-12-16T23:04:05.071Z,-5.66
2022-12-16T23:06:50.161Z,-5.48
2022-12-16T23:09:35.435Z,-5.53
2022-12-16T23:12:20.764Z,-5.54
2022-12-16T23:15:06.206Z,-5.66
2022-12-16T23:17:51.406Z,-5.64
2022-12-16T23:20:36.987Z,-5.95
2022-12-16T23:23:22.386Z,-6.13
2022-12-16T23:26:15.724Z,-6.12
2022-12-16T23:29:00.946Z,-6.02
2022-12-16T23:31:46.413Z,-6.19
2022-12-16T23:34:31.802Z,-6.18
2022-12-16T23:37:16.993Z,-6.45
2022-12-16T23:40:02.281Z,-6.22
2022-12-16T23:42:47.487Z,-6.58
2022-12-16T23:45:32.749Z,-6.67
2022-12-16T23:48:27.156Z,-6.70
2022-12-16T23:51:12.989Z,-7.16
2022-12-16T23:53:58.566Z,-7.25
2022-12-16T23:56:44.234Z,-7.70
2022-12-16T23:59:29.423Z,-7.90
